createdAt,value
2019-02-23T00:01:21.378Z,20.80
2019-02-23T00:03:50.850Z,20.81
2019-02-23T00:06:29.467Z,20.85
2019-02-23T00:08:52.009Z,20.88
2019-02-23T00:11:21.619Z,20.88
2019-02-23T00:13:51.119Z,20.87
2019-02-23T00:16:20.658Z,20.86
2019-02-23T00:18:50.130Z,20.86
2019-02-23T00:21:19.576Z,20.85
2019-02-23T00:23:49.144Z,20.89
2019-02-23T00:26:18.607Z,20.93
2019-02-23T00:28:48.141Z,21.00
2019-02-23T00:31:17.654Z,21.22
2019-02-23T00:33:47.101Z,21.28
2019-02-23T00:36:16.601Z,21.26
2019-02-23T00:38:46.208Z,21.25
2019-02-23T00:41:16.156Z,21.24
2019-02-23T00:43:45.675Z,21.23
2019-02-23T00:46:15.162Z,21.16
2019-02-23T00:48:44.670Z,21.14
2019-02-23T00:51:15.308Z,21.10
2019-02-23T00:53:44.793Z,21.05
2019-02-23T00:56:14.258Z,21.03
2019-02-23T00:58:43.794Z,20.96
2019-02-23T01:01:13.446Z,20.93
2019-02-23T01:03:42.908Z,20.92
2019-02-23T01:06:12.518Z,20.89
2019-02-23T01:08:42.111Z,20.87
2019-02-23T01:11:11.973Z,20.83
2019-02-23T01:13:41.449Z,20.79
2019-02-23T01:16:10.927Z,20.76
2019-02-23T01:18:40.548Z,20.75
2019-02-23T01:21:10.023Z,20.75
2019-02-23T01:23:40.461Z,20.70
2019-02-23T01:26:10.085Z,20.66
2019-02-23T01:28:39.559Z,20.60
2019-02-23T01:31:09.034Z,20.57
2019-02-23T01:33:38.522Z,20.54
2019-02-23T01:36:08.017Z,20.50
2019-02-23T01:38:37.519Z,20.48
2019-02-23T01:41:07.613Z,20.43
2019-02-23T01:43:37.191Z,20.43
2019-02-23T01:46:06.758Z,20.39
2019-02-23T01:48:36.250Z,20.37
2019-02-23T01:51:05.759Z,20.34
2019-02-23T01:53:35.227Z,20.36
2019-02-23T01:56:04.832Z,20.34
2019-02-23T01:58:34.329Z,20.32
2019-02-23T02:01:03.904Z,20.33
2019-02-23T02:03:33.369Z,20.32
2019-02-23T02:06:02.923Z,20.34
2019-02-23T02:08:32.716Z,20.33
2019-02-23T02:11:02.570Z,20.38
2019-02-23T02:13:32.104Z,20.41
2019-02-23T02:16:01.587Z,20.43
2019-02-23T02:18:32.110Z,20.46
2019-02-23T02:21:01.657Z,20.47
2019-02-23T02:23:31.122Z,20.51
2019-02-23T02:26:01.452Z,20.51
2019-02-23T02:28:30.927Z,20.52
2019-02-23T02:31:00.388Z,20.54
2019-02-23T02:33:29.843Z,20.54
2019-02-23T02:35:59.401Z,20.55
2019-02-23T02:38:28.839Z,20.59
2019-02-23T02:40:58.357Z,20.64
2019-02-23T02:43:27.805Z,20.66
2019-02-23T02:45:57.260Z,20.66
2019-02-23T02:48:26.821Z,20.68
2019-02-23T02:50:56.342Z,20.71
2019-02-23T02:53:25.777Z,20.69
2019-02-23T02:55:55.234Z,20.67
2019-02-23T02:58:24.696Z,20.65
2019-02-23T03:00:54.236Z,20.63
2019-02-23T03:03:23.753Z,20.64
2019-02-23T03:05:55.360Z,20.65
2019-02-23T03:08:24.837Z,20.64
2019-02-23T03:10:54.359Z,20.66
2019-02-23T03:13:23.822Z,20.63
2019-02-23T03:15:53.331Z,20.63
2019-02-23T03:18:22.905Z,20.63
2019-02-23T03:20:52.411Z,20.61
2019-02-23T03:23:21.886Z,20.63
2019-02-23T03:25:51.385Z,20.63
2019-02-23T03:28:20.835Z,20.62
2019-02-23T03:30:50.302Z,20.65
2019-02-23T03:33:19.807Z,20.65
2019-02-23T03:35:49.249Z,20.70
2019-02-23T03:38:18.765Z,20.74
2019-02-23T03:40:48.238Z,20.76
2019-02-23T03:43:21.081Z,20.79
2019-02-23T03:45:50.649Z,20.82
2019-02-23T03:48:20.526Z,20.81
2019-02-23T03:50:49.988Z,20.83
2019-02-23T03:53:19.446Z,20.84
2019-02-23T03:55:48.946Z,20.85
2019-02-23T03:58:18.400Z,20.86
2019-02-23T04:00:47.988Z,20.86
2019-02-23T04:03:17.452Z,20.89
2019-02-23T04:05:46.916Z,20.93
2019-02-23T04:08:18.603Z,20.98
2019-02-23T04:10:48.069Z,21.02
2019-02-23T04:13:18.311Z,21.08
2019-02-23T04:15:47.794Z,21.11
2019-02-23T04:18:17.253Z,21.11
2019-02-23T04:20:48.043Z,21.10
2019-02-23T04:23:17.505Z,21.06
2019-02-23T04:25:46.953Z,21.01
2019-02-23T04:28:16.404Z,21.00
2019-02-23T04:30:45.909Z,21.00
2019-02-23T04:33:16.285Z,20.98
2019-02-23T04:35:46.553Z,20.94
2019-02-23T04:38:16.198Z,20.95
2019-02-23T04:40:45.628Z,20.95
2019-02-23T04:43:15.092Z,20.95
2019-02-23T04:45:44.612Z,20.97
2019-02-23T04:48:14.139Z,21.02
2019-02-23T04:50:43.645Z,21.07
2019-02-23T04:53:13.214Z,21.05
2019-02-23T04:55:42.659Z,21.04
2019-02-23T04:58:12.162Z,21.03
2019-02-23T05:00:44.865Z,21.04
2019-02-23T05:03:12.830Z,21.02
2019-02-23T05:05:42.354Z,21.02
2019-02-23T05:08:11.855Z,21.06
2019-02-23T05:10:41.358Z,21.06
2019-02-23T05:13:10.834Z,21.09
2019-02-23T05:15:40.287Z,21.11
2019-02-23T05:18:09.765Z,21.12
2019-02-23T05:20:39.253Z,21.14
2019-02-23T05:23:08.719Z,21.15
2019-02-23T05:25:38.281Z,21.17
2019-02-23T05:28:07.733Z,21.21
2019-02-23T05:30:37.302Z,21.25
2019-02-23T05:33:06.754Z,21.26
2019-02-23T05:35:36.253Z,21.27
2019-02-23T05:38:05.826Z,21.32
2019-02-23T05:40:35.390Z,21.38
2019-02-23T05:43:04.878Z,21.45
2019-02-23T05:45:34.479Z,21.48
2019-02-23T05:48:03.933Z,21.50
2019-02-23T05:50:33.443Z,21.48
2019-02-23T05:53:03.003Z,21.45
2019-02-23T05:55:32.575Z,21.44
2019-02-23T05:58:02.058Z,21.41
2019-02-23T06:00:31.570Z,21.39
2019-02-23T06:03:01.351Z,21.38
2019-02-23T06:05:30.879Z,21.36
2019-02-23T06:08:00.416Z,21.37
2019-02-23T06:10:29.950Z,21.35
2019-02-23T06:12:59.443Z,21.36
2019-02-23T06:15:29.033Z,21.34
2019-02-23T06:17:58.528Z,21.36
2019-02-23T06:20:28.000Z,21.37
2019-02-23T06:22:57.466Z,21.36
2019-02-23T06:25:26.914Z,21.35
2019-02-23T06:27:56.378Z,21.40
2019-02-23T06:30:25.878Z,21.42
2019-02-23T06:32:55.409Z,21.47
2019-02-23T06:35:24.901Z,21.45
2019-02-23T06:37:54.569Z,21.44
2019-02-23T06:40:24.103Z,21.46
2019-02-23T06:42:53.529Z,21.48
2019-02-23T06:45:23.045Z,21.51
2019-02-23T06:47:52.495Z,21.53
2019-02-23T06:50:21.981Z,21.53
2019-02-23T06:52:51.677Z,21.55
2019-02-23T06:55:21.137Z,21.58
2019-02-23T06:57:50.636Z,21.62
2019-02-23T07:00:20.160Z,21.61
2019-02-23T07:02:49.634Z,21.64
2019-02-23T07:05:19.206Z,21.67
2019-02-23T07:07:48.776Z,21.69
2019-02-23T07:10:18.335Z,21.70
2019-02-23T07:12:47.996Z,21.74
2019-02-23T07:15:17.490Z,21.77
2019-02-23T07:17:47.975Z,21.82
2019-02-23T07:20:17.455Z,21.84
2019-02-23T07:22:48.501Z,21.83
2019-02-23T07:25:18.004Z,21.80
2019-02-23T07:27:47.617Z,21.75
2019-02-23T07:30:17.214Z,21.72
2019-02-23T07:32:46.700Z,21.73
2019-02-23T07:35:16.243Z,21.76
2019-02-23T07:37:45.835Z,21.76
2019-02-23T07:40:15.460Z,21.73
2019-02-23T07:42:44.933Z,21.75
2019-02-23T07:45:14.569Z,21.73
2019-02-23T07:47:44.156Z,21.74
2019-02-23T07:50:13.762Z,21.77
2019-02-23T07:52:43.264Z,21.78
2019-02-23T07:55:12.822Z,21.78
2019-02-23T07:57:42.359Z,21.79
2019-02-23T08:00:13.171Z,21.77
2019-02-23T08:02:42.842Z,21.75
2019-02-23T08:05:12.597Z,21.75
2019-02-23T08:07:42.081Z,21.75
2019-02-23T08:10:11.680Z,21.77
2019-02-23T08:12:41.414Z,21.76
2019-02-23T08:15:11.034Z,21.78
2019-02-23T08:17:40.601Z,21.81
2019-02-23T08:20:10.592Z,21.83
2019-02-23T08:22:40.073Z,21.84
2019-02-23T08:25:09.633Z,21.86
2019-02-23T08:27:39.170Z,21.85
2019-02-23T08:30:10.350Z,21.87
2019-02-23T08:32:40.320Z,21.88
2019-02-23T08:35:10.068Z,21.90
2019-02-23T08:37:39.661Z,21.91
2019-02-23T08:40:10.172Z,22.00
2019-02-23T08:42:39.665Z,22.00
2019-02-23T08:45:09.601Z,21.98
2019-02-23T08:47:39.196Z,21.94
2019-02-23T08:50:10.582Z,21.92
2019-02-23T08:52:48.709Z,21.88
2019-02-23T08:55:11.754Z,21.85
2019-02-23T08:57:41.265Z,21.79
2019-02-23T09:00:13.407Z,21.75
2019-02-23T09:02:43.022Z,21.70
2019-02-23T09:05:12.591Z,21.68
2019-02-23T09:07:42.131Z,21.67
2019-02-23T09:10:12.968Z,21.61
2019-02-23T09:12:42.607Z,21.58
2019-02-23T09:15:12.364Z,21.55
2019-02-23T09:17:41.905Z,21.54
2019-02-23T09:20:11.550Z,21.52
2019-02-23T09:22:42.154Z,21.51
2019-02-23T09:25:11.950Z,21.49
2019-02-23T09:27:41.430Z,21.47
2019-02-23T09:30:12.973Z,21.47
2019-02-23T09:32:42.603Z,21.44
2019-02-23T09:35:12.143Z,21.43
2019-02-23T09:37:41.662Z,21.42
2019-02-23T09:40:11.442Z,21.40
2019-02-23T09:42:41.852Z,21.39
2019-02-23T09:45:14.882Z,21.39
2019-02-23T09:47:47.634Z,21.40
2019-02-23T09:50:17.961Z,21.41
2019-02-23T09:52:47.457Z,21.42
2019-02-23T09:55:16.998Z,21.44
2019-02-23T09:57:48.192Z,21.44
2019-02-23T10:00:17.718Z,21.46
2019-02-23T10:02:47.261Z,21.47
2019-02-23T10:05:16.779Z,21.48
2019-02-23T10:07:46.657Z,21.50
2019-02-23T10:10:16.235Z,21.52
2019-02-23T10:12:47.387Z,21.52
2019-02-23T10:15:16.919Z,21.52
2019-02-23T10:17:46.425Z,21.54
2019-02-23T10:20:15.925Z,21.56
2019-02-23T10:22:45.471Z,21.56
2019-02-23T10:25:14.957Z,21.53
2019-02-23T10:27:44.915Z,21.51
2019-02-23T10:30:14.652Z,21.49
2019-02-23T10:32:44.210Z,21.47
2019-02-23T10:35:14.399Z,21.47
2019-02-23T10:37:43.973Z,21.44
2019-02-23T10:40:14.641Z,21.43
2019-02-23T10:42:44.134Z,21.43
2019-02-23T10:45:13.821Z,21.43
2019-02-23T10:47:43.540Z,21.41
2019-02-23T10:50:13.332Z,21.42
2019-02-23T10:52:43.130Z,21.42
2019-02-23T10:55:12.750Z,21.53
2019-02-23T10:57:42.575Z,21.91
2019-02-23T11:00:17.832Z,22.44
2019-02-23T11:02:49.765Z,22.93
2019-02-23T11:05:20.519Z,23.20
2019-02-23T11:07:52.304Z,23.49
2019-02-23T11:10:25.396Z,23.72
2019-02-23T11:12:55.015Z,23.95
2019-02-23T11:15:24.983Z,24.08
2019-02-23T11:17:57.551Z,24.17
2019-02-23T11:20:27.329Z,24.31
2019-02-23T11:22:56.909Z,24.40
2019-02-23T11:25:26.493Z,24.53
2019-02-23T11:27:57.345Z,24.59
2019-02-23T11:30:27.022Z,24.60
2019-02-23T11:32:58.834Z,24.64
2019-02-23T11:35:28.382Z,24.68
2019-02-23T11:37:57.964Z,24.71
2019-02-23T11:40:27.416Z,24.71
2019-02-23T11:42:58.976Z,24.81
2019-02-23T11:45:30.905Z,24.84
2019-02-23T11:47:59.808Z,25.07
2019-02-23T11:50:29.335Z,25.11
2019-02-23T11:52:58.873Z,25.29
2019-02-23T11:55:31.888Z,25.21
2019-02-23T11:58:01.411Z,25.50
2019-02-23T12:00:32.476Z,25.76
2019-02-23T12:03:01.992Z,26.08
2019-02-23T12:05:31.507Z,25.99
2019-02-23T12:08:01.030Z,25.76
2019-02-23T12:10:30.549Z,26.21
2019-02-23T12:13:02.507Z,26.41
2019-02-23T12:15:32.167Z,26.36
2019-02-23T12:18:01.741Z,26.32
2019-02-23T12:20:31.330Z,26.17
2019-02-23T12:23:00.977Z,26.04
2019-02-23T12:25:30.533Z,25.93
2019-02-23T12:28:00.287Z,25.79
2019-02-23T12:30:29.893Z,25.69
2019-02-23T12:32:59.569Z,25.66
2019-02-23T12:35:29.152Z,25.61
2019-02-23T12:37:58.745Z,25.54
2019-02-23T12:40:28.425Z,25.49
2019-02-23T12:42:58.027Z,25.44
2019-02-23T12:45:28.561Z,25.36
2019-02-23T12:47:58.204Z,25.33
2019-02-23T12:50:27.751Z,25.25
2019-02-23T12:52:59.806Z,25.20
2019-02-23T12:55:29.600Z,25.15
2019-02-23T12:57:59.584Z,25.09
2019-02-23T13:00:29.150Z,25.07
2019-02-23T13:03:00.475Z,25.06
2019-02-23T13:05:30.061Z,24.93
2019-02-23T13:07:59.783Z,24.83
2019-02-23T13:10:29.457Z,24.78
2019-02-23T13:13:30.605Z,24.69
2019-02-23T13:16:13.521Z,24.62
2019-02-23T13:19:33.880Z,24.51
2019-02-23T13:22:30.088Z,24.44
2019-02-23T13:25:23.326Z,24.40
2019-02-23T13:28:22.261Z,24.37
2019-02-23T13:31:24.176Z,24.29
2019-02-23T13:34:34.599Z,24.27
2019-02-23T13:37:42.179Z,24.19
2019-02-23T13:41:04.912Z,24.10
2019-02-23T13:43:51.552Z,24.05
2019-02-23T13:46:45.029Z,24.02
2019-02-23T13:50:06.481Z,23.95
2019-02-23T13:53:20.652Z,23.90
2019-02-23T13:56:30.682Z,23.83
2019-02-23T13:59:14.709Z,23.85
2019-02-23T14:02:07.277Z,23.85
2019-02-23T14:05:26.458Z,23.87
2019-02-23T14:08:22.065Z,23.83
2019-02-23T14:11:33.798Z,23.83
2019-02-23T14:14:23.543Z,23.84
2019-02-23T14:17:30.515Z,23.82
2019-02-23T14:20:50.083Z,23.83
2019-02-23T14:23:50.936Z,23.81
2019-02-23T14:26:55.642Z,23.80
2019-02-23T14:30:17.440Z,23.75
2019-02-23T14:33:27.716Z,23.67
2019-02-23T14:36:18.769Z,23.64
2019-02-23T14:39:28.259Z,23.56
2019-02-23T14:42:11.763Z,23.53
2019-02-23T14:45:37.162Z,23.48
2019-02-23T14:48:51.566Z,23.43
2019-02-23T14:52:04.821Z,23.39
2019-02-23T14:55:21.339Z,23.37
2019-02-23T14:58:30.825Z,23.35
2019-02-23T15:01:31.305Z,23.33
2019-02-23T15:04:56.444Z,23.28
2019-02-23T15:08:07.110Z,23.28
2019-02-23T15:11:02.938Z,23.24
2019-02-23T15:14:11.565Z,23.23
2019-02-23T15:17:23.867Z,23.21
2019-02-23T15:20:36.176Z,23.19
2019-02-23T15:23:33.639Z,23.23
2019-02-23T15:26:57.181Z,23.25
2019-02-23T15:29:51.704Z,23.28
2019-02-23T15:33:08.120Z,23.33
2019-02-23T15:36:05.418Z,23.35
2019-02-23T15:39:13.042Z,23.35
2019-02-23T15:42:41.705Z,23.35
2019-02-23T15:45:33.132Z,23.35
2019-02-23T15:48:29.891Z,23.35
2019-02-23T15:50:59.589Z,23.35
2019-02-23T15:53:29.588Z,23.34
2019-02-23T15:55:59.621Z,23.29
2019-02-23T15:58:30.557Z,23.22
2019-02-23T16:01:00.331Z,23.18
2019-02-23T16:03:30.046Z,23.13
2019-02-23T16:06:00.044Z,23.11
2019-02-23T16:08:29.887Z,23.09
2019-02-23T16:11:02.962Z,23.06
2019-02-23T16:13:32.810Z,23.04
2019-02-23T16:16:02.662Z,23.03
2019-02-23T16:18:32.591Z,23.01
2019-02-23T16:21:02.644Z,22.98
2019-02-23T16:23:36.813Z,22.96
2019-02-23T16:26:03.810Z,22.94
2019-02-23T16:28:33.553Z,22.93
2019-02-23T16:31:03.146Z,22.90
2019-02-23T16:33:32.791Z,22.89
2019-02-23T16:36:02.682Z,22.89
2019-02-23T16:38:32.207Z,22.87
2019-02-23T16:41:01.736Z,22.86
2019-02-23T16:43:31.343Z,22.85
2019-02-23T16:46:00.951Z,22.83
2019-02-23T16:48:30.616Z,22.86
2019-02-23T16:51:00.302Z,22.89
2019-02-23T16:53:29.903Z,22.91
2019-02-23T16:55:59.635Z,22.91
2019-02-23T16:58:29.196Z,22.95
2019-02-23T17:00:58.791Z,22.99
2019-02-23T17:03:28.410Z,22.98
2019-02-23T17:05:57.924Z,23.02
2019-02-23T17:08:27.491Z,23.04
2019-02-23T17:10:56.952Z,23.03
2019-02-23T17:13:26.462Z,23.05
2019-02-23T17:15:57.314Z,23.05
2019-02-23T17:18:26.888Z,23.05
2019-02-23T17:20:56.497Z,23.00
2019-02-23T17:23:26.042Z,23.00
2019-02-23T17:26:04.348Z,23.06
2019-02-23T17:28:26.959Z,23.06
2019-02-23T17:30:56.980Z,23.04
2019-02-23T17:33:28.030Z,23.02
2019-02-23T17:35:58.164Z,23.02
2019-02-23T17:38:27.968Z,23.01
2019-02-23T17:40:57.903Z,22.99
2019-02-23T17:43:29.185Z,22.99
2019-02-23T17:45:58.777Z,22.99
2019-02-23T17:48:28.547Z,22.99
2019-02-23T17:50:58.185Z,23.02
2019-02-23T17:53:27.920Z,23.03
2019-02-23T17:55:57.398Z,23.02
2019-02-23T17:58:27.845Z,23.03
2019-02-23T18:00:57.897Z,23.03
2019-02-23T18:03:27.760Z,23.06
2019-02-23T18:05:57.702Z,23.07
2019-02-23T18:08:27.373Z,23.06
2019-02-23T18:10:56.956Z,23.04
2019-02-23T18:13:26.562Z,23.06
2019-02-23T18:15:56.213Z,23.07
2019-02-23T18:18:25.790Z,23.09
2019-02-23T18:20:55.412Z,23.10
2019-02-23T18:23:26.961Z,23.09
2019-02-23T18:25:57.211Z,23.10
2019-02-23T18:28:27.326Z,23.10
2019-02-23T18:30:57.470Z,23.13
2019-02-23T18:33:27.184Z,23.13
2019-02-23T18:35:56.867Z,23.11
2019-02-23T18:38:26.569Z,23.12
2019-02-23T18:40:56.136Z,23.11
2019-02-23T18:43:25.757Z,23.11
2019-02-23T18:45:55.293Z,23.11
2019-02-23T18:48:24.797Z,23.09
2019-02-23T18:50:54.500Z,23.09
2019-02-23T18:53:24.068Z,23.08
2019-02-23T18:55:53.604Z,23.04
2019-02-23T18:58:23.194Z,23.01
2019-02-23T19:00:52.933Z,22.99
2019-02-23T19:03:22.660Z,22.99
2019-02-23T19:05:52.744Z,22.97
2019-02-23T19:08:22.675Z,22.99
2019-02-23T19:10:52.200Z,22.97
2019-02-23T19:13:23.724Z,22.98
2019-02-23T19:15:53.442Z,22.97
2019-02-23T19:18:22.936Z,22.95
2019-02-23T19:20:52.827Z,22.95
2019-02-23T19:23:22.328Z,22.91
2019-02-23T19:25:53.653Z,22.92
2019-02-23T19:28:23.169Z,22.88
2019-02-23T19:30:53.638Z,22.88
2019-02-23T19:33:23.622Z,22.90
2019-02-23T19:35:53.134Z,22.87
2019-02-23T19:38:22.777Z,22.87
2019-02-23T19:40:52.820Z,22.88
2019-02-23T19:43:22.821Z,22.91
2019-02-23T19:45:52.622Z,22.95
2019-02-23T19:48:22.495Z,22.98
2019-02-23T19:50:56.171Z,23.00
2019-02-23T19:53:36.662Z,23.01
2019-02-23T19:56:06.428Z,23.01
2019-02-23T19:58:37.813Z,23.00
2019-02-23T20:01:07.677Z,23.01
2019-02-23T20:03:37.414Z,23.04
2019-02-23T20:06:06.974Z,23.02
2019-02-23T20:08:37.013Z,23.02
2019-02-23T20:11:07.012Z,23.00
2019-02-23T20:13:36.759Z,22.97
2019-02-23T20:16:06.461Z,22.96
2019-02-23T20:18:36.253Z,22.96
2019-02-23T20:21:05.809Z,22.99
2019-02-23T20:23:35.343Z,23.03
2019-02-23T20:26:04.948Z,23.05
2019-02-23T20:28:34.683Z,23.07
2019-02-23T20:31:04.534Z,23.10
2019-02-23T20:33:35.333Z,23.11
2019-02-23T20:36:05.804Z,23.12
2019-02-23T20:38:35.823Z,23.12
2019-02-23T20:41:05.538Z,23.11
2019-02-23T20:43:35.793Z,23.11
2019-02-23T20:46:05.386Z,23.08
2019-02-23T20:48:34.994Z,23.05
2019-02-23T20:51:04.529Z,23.04
2019-02-23T20:53:34.098Z,23.01
2019-02-23T20:56:03.885Z,22.99
2019-02-23T20:58:33.433Z,23.00
2019-02-23T21:01:03.072Z,22.97
2019-02-23T21:03:32.716Z,22.98
2019-02-23T21:06:02.422Z,22.95
2019-02-23T21:08:32.275Z,22.94
2019-02-23T21:11:01.959Z,22.93
2019-02-23T21:13:31.571Z,22.92
2019-02-23T21:16:03.930Z,22.91
2019-02-23T21:18:33.503Z,22.92
2019-02-23T21:21:03.081Z,22.93
2019-02-23T21:23:32.668Z,22.95
2019-02-23T21:26:02.224Z,22.96
2019-02-23T21:28:31.739Z,22.95
2019-02-23T21:31:01.274Z,22.98
2019-02-23T21:33:30.872Z,23.02
2019-02-23T21:36:00.454Z,22.99
2019-02-23T21:38:30.147Z,22.99
2019-02-23T21:40:59.679Z,22.94
2019-02-23T21:43:29.202Z,22.92
2019-02-23T21:45:59.016Z,22.92
2019-02-23T21:48:28.547Z,22.93
2019-02-23T21:50:58.143Z,22.96
2019-02-23T21:53:27.985Z,22.98
2019-02-23T21:55:57.852Z,22.96
2019-02-23T21:58:34.769Z,22.92
2019-02-23T22:01:04.425Z,22.92
2019-02-23T22:03:34.320Z,22.91
2019-02-23T22:06:03.913Z,22.92
2019-02-23T22:08:33.384Z,22.93
2019-02-23T22:11:02.896Z,22.97
2019-02-23T22:13:32.479Z,22.95
2019-02-23T22:16:04.261Z,22.92
2019-02-23T22:18:33.397Z,22.92
2019-02-23T22:21:03.001Z,22.93
2019-02-23T22:23:32.537Z,22.92
2019-02-23T22:26:03.138Z,22.92
2019-02-23T22:28:32.928Z,22.91
2019-02-23T22:31:02.430Z,22.93
2019-02-23T22:33:31.994Z,23.01
2019-02-23T22:36:01.559Z,23.07
2019-02-23T22:38:31.145Z,23.18
2019-02-23T22:41:00.762Z,23.21
2019-02-23T22:43:30.646Z,23.28
2019-02-23T22:46:00.129Z,23.35
2019-02-23T22:48:29.725Z,23.40
2019-02-23T22:50:59.746Z,23.43
2019-02-23T22:53:29.284Z,23.52
2019-02-23T22:55:58.819Z,23.49
2019-02-23T22:58:28.359Z,23.51
2019-02-23T23:01:07.136Z,23.52
2019-02-23T23:03:38.018Z,23.51
2019-02-23T23:06:07.534Z,23.51
2019-02-23T23:08:37.218Z,23.48
2019-02-23T23:11:06.985Z,23.44
2019-02-23T23:13:36.535Z,23.41
2019-02-23T23:16:06.000Z,23.36
2019-02-23T23:18:35.872Z,23.32
2019-02-23T23:21:05.780Z,23.27
2019-02-23T23:23:35.401Z,23.26
2019-02-23T23:26:07.287Z,23.24
2019-02-23T23:28:36.762Z,23.21
2019-02-23T23:31:06.314Z,23.21
2019-02-23T23:33:36.062Z,23.20
2019-02-23T23:36:05.626Z,23.19
2019-02-23T23:38:35.169Z,23.21
2019-02-23T23:41:04.777Z,23.20
2019-02-23T23:43:36.754Z,23.22
2019-02-23T23:46:06.283Z,23.21
2019-02-23T23:48:35.849Z,23.21
2019-02-23T23:51:06.648Z,23.21
2019-02-23T23:53:37.105Z,23.22
2019-02-23T23:56:06.618Z,23.22
2019-02-23T23:58:36.134Z,23.25
